Shawnee Mission, KS (66212)

1:24 AM CDT en Octubre 22, 2014 (GMT -0500)
Round Hill - Fay Ironman | Change Station
CLOSE
Current Station
Estación meteorológica personal
Location: Overland Park, KS
Altura: 1063 ft
Estaciones meteorológicas cercanas

Alt 1063 ft 38.97 °N, 94.65 °W | Updated 34 seconds ago

Despejado
Despejado
57.2 ° F
Sensación térmica 57.2 ° F
N
3.0
Viento Variable Viento desde ESE
Gusts 6.0 mph

Hoy
Alta -- | Baja -- ° F
--% Posibilidad de precipitaciones
Ayer
Alta -- | Baja -- ° F
Precip. -- pul
7:35 AM 6:30 PM
Creciente menguante, 3% visible
Presión 30.10 pul
Visibilidad 10.0 Millas
Nubes Despejado
Punto de rocío 46 ° F
Humedad 67%
Precipitaciones 0.00 pul
Espesor de la nieve No disponible.
UV 0 de una escala de 12
Polen 2.30 de una escala de 12
Calidad del aire No disponible.
Flu Activity No disponible.
METAR KOJC 220553Z AUTO 12007KT 10SM CLR 13/07 A3011 RMK AO2 SLP192 T01330072 10183 20133 402330072 53002

More Conditions Fewer Conditions

Presión 30.10 pul
Visibilidad 10.0 Millas
Nubes Despejado
Punto de rocío 46 ° F
Humedad 67%
Precipitaciones 0.00 pul
Espesor de la nieve No disponible.
UV 0 de una escala de 12
Polen 2.30 de una escala de 12
Calidad del aire No disponible.
Flu Activity No disponible.
METAR KOJC 220553Z AUTO 12007KT 10SM CLR 13/07 A3011 RMK AO2 SLP192 T01330072 10183 20133 402330072 53002

More Conditions Fewer Conditions

10-Day Weather Forecast

Almanac

Astronomía

Oct. 22, 2014 Salida Puesta
Hora real 7:35 AM CDT 6:30 PM CDT
Crepúsculo civil 7:08 AM CDT 6:57 PM CDT
Crepúsculo náutico 6:37 AM CDT 7:28 PM CDT
Crepúsculo astronómico 6:06 AM CDT 7:59 PM CDT
Luna 6:18 AM CDT 5:57 PM CDT
Horas de luz 11h 49m
Horas de luz
10h 55m
Tomorrow will be 2m 22s shorter.
Creciente menguante, 3% of the Moon is Illuminated
Hoy
Creciente menguante
Oct 23
Nueva
Oct 30
Cuarto creciente
Nov 6
Luna llena
Nov 14
Cuarto menguante

Extremos de hoy

Máximos del estado Bajos del estado

Community

WunderPhotos

Upload Photos

1,763,885 ¡fotos cargadas!

Nearby

Grosos de nieve

Estación Profundido Altura
No tenemos constancia de nieve nueva.

Actividad de terremotos

Ciudad Distance Mag. Tiempo y dato
No hay informes recientes de la actividad sísmica.
Magnitud mínima muestra es 2,5.

Temperaturas de aguas costeras

Lugar Temperatura
Sin partes meteorológicos de las estaciones

Estaciones meteorológicas cercanas